createdAt,value
2022-08-23T00:02:26.469Z,3.22
2022-08-23T00:05:08.213Z,3.80
2022-08-23T00:07:40.726Z,4.00
2022-08-23T00:10:09.937Z,3.58
2022-08-23T00:12:36.423Z,3.78
2022-08-23T00:15:04.153Z,3.80
2022-08-23T00:17:34.221Z,3.92
2022-08-23T00:20:02.659Z,4.18
2022-08-23T00:22:29.212Z,3.92
2022-08-23T00:24:55.723Z,4.22
2022-08-23T00:27:22.202Z,3.70
2022-08-23T00:29:52.560Z,4.20
2022-08-23T00:32:27.011Z,4.10
2022-08-23T00:34:53.534Z,3.63
2022-08-23T00:37:21.328Z,3.88
2022-08-23T00:39:47.874Z,3.75
2022-08-23T00:42:56.192Z,3.90
2022-08-23T00:45:49.672Z,3.90
2022-08-23T00:48:16.352Z,3.85
2022-08-23T00:51:04.452Z,3.47
2022-08-23T00:53:37.998Z,3.40
2022-08-23T00:58:32.918Z,3.70
2022-08-23T01:01:01.917Z,4.03
2022-08-23T01:03:31.002Z,3.13
2022-08-23T01:06:21.091Z,3.97
2022-08-23T01:11:24.293Z,3.53
2022-08-23T01:13:57.218Z,3.35
2022-08-23T01:16:33.613Z,2.78
2022-08-23T01:19:06.985Z,3.92
2022-08-23T01:21:41.776Z,3.80
2022-08-23T01:24:10.405Z,3.60
2022-08-23T01:26:50.706Z,3.50
2022-08-23T01:29:17.332Z,3.88
2022-08-23T01:31:43.956Z,3.38
2022-08-23T01:34:12.302Z,3.65
2022-08-23T01:36:38.813Z,3.22
2022-08-23T01:39:05.884Z,3.45
2022-08-23T01:41:32.383Z,3.30
2022-08-23T01:43:58.926Z,3.38
2022-08-23T01:46:26.937Z,3.58
2022-08-23T01:48:55.444Z,3.83
2022-08-23T01:51:22.716Z,3.15
2022-08-23T01:53:49.362Z,3.53
2022-08-23T01:56:19.733Z,3.80
2022-08-23T01:58:54.370Z,3.45
2022-08-23T02:01:21.144Z,3.63
2022-08-23T02:03:52.123Z,3.47
2022-08-23T02:06:32.237Z,3.95
2022-08-23T02:09:01.482Z,4.10
2022-08-23T02:11:34.016Z,4.45
2022-08-23T02:14:03.810Z,4.00
2022-08-23T02:16:34.818Z,4.00
2022-08-23T02:19:05.893Z,3.72
2022-08-23T02:21:34.199Z,3.88
2022-08-23T02:24:10.029Z,4.47
2022-08-23T02:26:41.447Z,3.55
2022-08-23T02:29:16.547Z,3.67
2022-08-23T02:31:44.329Z,3.80
2022-08-23T02:36:59.963Z,4.35
2022-08-23T02:39:27.092Z,4.40
2022-08-23T02:41:53.948Z,4.15
2022-08-23T02:44:20.862Z,4.13
2022-08-23T02:46:47.928Z,3.65
2022-08-23T02:49:14.888Z,3.85
2022-08-23T02:51:42.749Z,4.03
2022-08-23T02:54:09.565Z,4.10
2022-08-23T02:56:36.274Z,3.95
2022-08-23T02:59:04.394Z,4.25
2022-08-23T03:01:34.010Z,3.88
2022-08-23T03:04:01.307Z,3.92
2022-08-23T03:06:28.459Z,3.72
2022-08-23T03:08:56.555Z,4.22
2022-08-23T03:11:24.808Z,4.13
2022-08-23T03:13:52.353Z,3.92
2022-08-23T03:16:19.596Z,3.90
2022-08-23T03:18:46.928Z,3.75
2022-08-23T03:21:13.789Z,4.00
2022-08-23T03:23:41.053Z,4.03
2022-08-23T03:26:09.090Z,3.90
2022-08-23T03:28:36.799Z,4.15
2022-08-23T03:31:04.110Z,4.35
2022-08-23T03:33:30.614Z,4.38
2022-08-23T03:36:01.562Z,4.32
2022-08-23T03:38:28.199Z,4.07
2022-08-23T03:40:54.854Z,3.90
2022-08-23T03:43:21.865Z,4.45
2022-08-23T03:45:48.559Z,4.35
2022-08-23T03:48:15.095Z,3.97
2022-08-23T03:50:41.642Z,3.75
2022-08-23T03:53:09.101Z,3.63
2022-08-23T03:55:42.303Z,4.18
2022-08-23T03:58:10.207Z,4.22
2022-08-23T04:00:36.926Z,4.32
2022-08-23T04:03:03.442Z,4.13
2022-08-23T04:05:30.023Z,4.10
2022-08-23T04:07:56.648Z,3.95
2022-08-23T04:10:24.294Z,3.92
2022-08-23T04:12:52.555Z,3.60
2022-08-23T04:15:19.598Z,3.50
2022-08-23T04:17:46.084Z,3.63
2022-08-23T04:20:12.605Z,3.67
2022-08-23T04:22:39.154Z,3.88
2022-08-23T04:25:12.273Z,3.72
2022-08-23T04:27:53.345Z,3.42
2022-08-23T04:30:22.355Z,3.67
2022-08-23T04:32:50.403Z,3.72
2022-08-23T04:35:16.932Z,3.80
2022-08-23T04:37:44.506Z,3.45
2022-08-23T04:40:30.375Z,4.00
2022-08-23T04:42:57.238Z,3.70
2022-08-23T04:45:24.565Z,3.70
2022-08-23T04:47:51.076Z,3.40
2022-08-23T04:50:17.567Z,3.50
2022-08-23T04:52:44.059Z,3.53
2022-08-23T04:55:10.816Z,3.60
2022-08-23T04:57:37.329Z,3.67
2022-08-23T05:00:05.399Z,3.08
2022-08-23T05:02:31.900Z,3.88
2022-08-23T05:04:58.424Z,3.47
2022-08-23T05:07:41.645Z,3.85
2022-08-23T05:10:15.638Z,3.38
2022-08-23T05:12:42.703Z,3.63
2022-08-23T05:15:09.910Z,3.83
2022-08-23T05:17:36.879Z,3.65
2022-08-23T05:20:04.404Z,3.53
2022-08-23T05:22:33.756Z,3.60
2022-08-23T05:25:00.277Z,3.88
2022-08-23T05:27:26.785Z,3.70
2022-08-23T05:29:56.108Z,3.90
2022-08-23T05:32:22.849Z,3.40
2022-08-23T05:34:49.526Z,3.50
2022-08-23T05:37:16.488Z,3.20
2022-08-23T05:39:43.117Z,3.35
2022-08-23T05:42:12.466Z,3.15
2022-08-23T05:44:39.238Z,3.67
2022-08-23T05:47:11.244Z,3.67
2022-08-23T05:49:38.542Z,3.25
2022-08-23T05:52:06.426Z,3.50
2022-08-23T05:54:33.212Z,3.30
2022-08-23T05:56:59.716Z,3.20
2022-08-23T05:59:26.211Z,3.50
2022-08-23T06:01:52.768Z,3.47
2022-08-23T06:04:19.796Z,3.38
2022-08-23T06:06:46.309Z,3.63
2022-08-23T06:09:14.792Z,3.47
2022-08-23T06:11:45.872Z,3.40
2022-08-23T06:14:13.089Z,3.28
2022-08-23T06:16:46.533Z,3.30
2022-08-23T06:19:14.193Z,3.00
2022-08-23T06:21:41.483Z,3.50
2022-08-23T06:24:08.150Z,3.45
2022-08-23T06:26:38.161Z,3.03
2022-08-23T06:29:14.267Z,3.10
2022-08-23T06:31:45.304Z,3.63
2022-08-23T06:34:18.478Z,3.28
2022-08-23T06:36:46.869Z,3.03
2022-08-23T06:39:14.278Z,3.35
2022-08-23T06:41:41.103Z,3.33
2022-08-23T06:44:08.439Z,3.13
2022-08-23T06:46:35.903Z,3.33
2022-08-23T06:49:05.243Z,3.28
2022-08-23T06:51:33.559Z,3.00
2022-08-23T06:54:03.578Z,2.90
2022-08-23T06:56:30.560Z,3.22
2022-08-23T06:58:57.245Z,3.50
2022-08-23T07:01:46.519Z,3.22
2022-08-23T07:04:15.311Z,3.13
2022-08-23T07:06:41.875Z,2.95
2022-08-23T07:09:08.426Z,2.63
2022-08-23T07:11:35.416Z,2.75
2022-08-23T07:14:05.453Z,3.03
2022-08-23T07:16:40.490Z,2.65
2022-08-23T07:19:07.330Z,3.10
2022-08-23T07:21:34.137Z,2.90
2022-08-23T07:24:01.047Z,3.10
2022-08-23T07:26:27.680Z,2.95
2022-08-23T07:28:57.029Z,3.40
2022-08-23T07:31:30.396Z,2.80
2022-08-23T07:33:59.562Z,3.05
2022-08-23T07:36:28.013Z,3.45
2022-08-23T07:38:55.642Z,2.78
2022-08-23T07:41:24.119Z,2.90
2022-08-23T07:43:50.652Z,2.80
2022-08-23T07:46:17.874Z,2.80
2022-08-23T07:48:53.942Z,2.88
2022-08-23T07:51:21.081Z,3.00
2022-08-23T07:53:48.023Z,2.60
2022-08-23T07:56:16.269Z,2.67
2022-08-23T07:58:42.759Z,2.70
2022-08-23T08:01:11.973Z,2.92
2022-08-23T08:03:39.538Z,2.70
2022-08-23T08:06:17.373Z,2.70
2022-08-23T08:08:44.664Z,2.72
2022-08-23T08:11:13.737Z,2.80
2022-08-23T08:13:42.315Z,2.45
2022-08-23T08:16:09.678Z,2.50
2022-08-23T08:18:36.866Z,2.80
2022-08-23T08:21:04.335Z,2.45
2022-08-23T08:23:30.868Z,2.70
2022-08-23T08:26:05.996Z,2.80
2022-08-23T08:28:33.502Z,2.60
2022-08-23T08:31:00.134Z,2.30
2022-08-23T08:33:30.968Z,2.30
2022-08-23T08:36:00.124Z,2.42
2022-08-23T08:38:30.711Z,2.75
2022-08-23T08:41:06.394Z,2.40
2022-08-23T08:43:57.485Z,2.50
2022-08-23T08:46:47.793Z,2.35
2022-08-23T08:49:25.330Z,2.20
2022-08-23T08:51:59.354Z,2.20
2022-08-23T08:54:27.901Z,2.40
2022-08-23T08:56:56.621Z,2.40
2022-08-23T08:59:45.709Z,2.63
2022-08-23T09:02:31.897Z,2.47
2022-08-23T09:05:00.837Z,2.60
2022-08-23T09:07:37.899Z,2.20
2022-08-23T09:10:13.677Z,2.33
2022-08-23T09:12:54.296Z,2.40
2022-08-23T09:15:36.767Z,2.28
2022-08-23T09:18:13.208Z,2.17
2022-08-23T09:20:40.964Z,2.47
2022-08-23T09:23:12.882Z,2.40
2022-08-23T09:25:39.406Z,2.70
2022-08-23T09:28:05.986Z,2.20
2022-08-23T09:31:08.166Z,2.20
2022-08-23T09:33:42.702Z,2.38
2022-08-23T09:36:25.284Z,2.42
2022-08-23T09:38:58.028Z,2.53
2022-08-23T09:41:36.721Z,2.60
2022-08-23T09:44:05.205Z,2.50
2022-08-23T09:46:35.860Z,2.47
2022-08-23T09:49:25.590Z,2.38
2022-08-23T09:51:54.314Z,2.38
2022-08-23T09:54:24.979Z,2.65
2022-08-23T09:56:54.419Z,2.45
2022-08-23T09:59:27.447Z,2.10
2022-08-23T10:01:56.386Z,2.35
2022-08-23T10:04:28.949Z,2.25
2022-08-23T10:06:55.582Z,2.30
2022-08-23T10:09:33.065Z,2.10
2022-08-23T10:12:01.223Z,2.20
2022-08-23T10:14:31.194Z,2.00
2022-08-23T10:16:57.748Z,2.10
2022-08-23T10:19:47.783Z,1.80
2022-08-23T10:22:27.050Z,2.00
2022-08-23T10:25:04.682Z,2.38
2022-08-23T10:28:05.019Z,2.20
2022-08-23T10:30:56.299Z,2.10
2022-08-23T10:33:30.112Z,2.03
2022-08-23T10:36:02.366Z,1.65
2022-08-23T10:38:40.919Z,1.90
2022-08-23T10:41:38.703Z,1.90
2022-08-23T10:44:18.378Z,2.05
2022-08-23T10:47:11.205Z,1.90
2022-08-23T10:49:39.052Z,2.05
2022-08-23T10:52:09.750Z,1.98
2022-08-23T10:54:59.274Z,1.90
2022-08-23T10:57:33.257Z,2.20
2022-08-23T11:00:00.185Z,2.17
2022-08-23T11:02:37.188Z,2.03
2022-08-23T11:05:08.218Z,2.20
2022-08-23T11:07:41.243Z,2.28
2022-08-23T11:10:26.163Z,1.83
2022-08-23T11:12:59.460Z,2.25
2022-08-23T11:15:33.081Z,1.95
2022-08-23T11:18:02.596Z,1.80
2022-08-23T11:20:51.322Z,2.25
2022-08-23T11:23:36.700Z,2.10
2022-08-23T11:26:05.282Z,2.20
2022-08-23T11:28:41.270Z,2.25
2022-08-23T11:31:08.537Z,2.30
2022-08-23T11:34:30.839Z,2.00
2022-08-23T11:37:18.618Z,2.17
2022-08-23T11:40:00.181Z,1.98
2022-08-23T11:42:29.510Z,2.53
2022-08-23T11:44:56.078Z,1.85
2022-08-23T11:47:39.683Z,1.98
2022-08-23T11:53:11.014Z,2.10
2022-08-23T11:56:00.345Z,1.80
2022-08-23T11:58:32.290Z,1.80
2022-08-23T12:01:07.785Z,1.83
2022-08-23T12:03:52.594Z,1.70
2022-08-23T12:06:19.142Z,1.98
2022-08-23T12:08:51.336Z,1.55
2022-08-23T12:11:19.690Z,1.75
2022-08-23T12:13:53.722Z,1.83
2022-08-23T12:16:20.226Z,1.75
2022-08-23T12:18:49.347Z,1.67
2022-08-23T12:21:42.372Z,1.50
2022-08-23T12:24:19.550Z,1.90
2022-08-23T12:26:59.132Z,1.83
2022-08-23T12:29:33.843Z,1.33
2022-08-23T12:32:07.857Z,1.40
2022-08-23T12:35:09.574Z,1.60
2022-08-23T12:37:51.477Z,1.60
2022-08-23T12:40:35.659Z,1.55
2022-08-23T12:43:17.415Z,1.90
2022-08-23T12:45:49.549Z,1.63
2022-08-23T12:48:20.177Z,1.83
2022-08-23T12:50:57.210Z,1.65
2022-08-23T12:53:45.348Z,1.92
2022-08-23T12:56:22.722Z,1.40
2022-08-23T12:59:00.198Z,1.88
2022-08-23T13:01:30.886Z,1.70
2022-08-23T13:04:04.472Z,1.50
2022-08-23T13:09:17.813Z,2.00
2022-08-23T13:11:45.354Z,1.63
2022-08-23T13:14:31.578Z,1.58
2022-08-23T13:17:26.313Z,1.52
2022-08-23T13:20:16.943Z,1.60
2022-08-23T13:22:58.813Z,1.77
2022-08-23T13:25:34.772Z,1.67
2022-08-23T13:28:05.881Z,1.40
2022-08-23T13:30:36.515Z,1.50
2022-08-23T13:33:07.749Z,1.60
2022-08-23T13:35:47.245Z,1.55
2022-08-23T13:38:30.457Z,1.55
2022-08-23T13:41:03.390Z,1.20
2022-08-23T13:43:44.629Z,1.55
2022-08-23T13:46:12.382Z,1.75
2022-08-23T13:48:45.754Z,1.40
2022-08-23T13:51:29.940Z,1.35
2022-08-23T13:53:58.387Z,1.42
2022-08-23T13:56:25.733Z,5.95
2022-08-23T13:59:01.407Z,2.17
2022-08-23T14:01:28.459Z,2.60
2022-08-23T14:03:55.222Z,3.33
2022-08-23T14:06:21.767Z,1.98
2022-08-23T14:08:48.518Z,4.80
2022-08-23T14:11:16.072Z,1.70
2022-08-23T14:13:45.070Z,1.50
2022-08-23T14:16:40.632Z,1.52
2022-08-23T14:19:16.690Z,1.60
2022-08-23T14:21:55.326Z,1.75
2022-08-23T14:24:21.858Z,1.42
2022-08-23T14:26:50.209Z,2.00
2022-08-23T14:29:22.438Z,2.03
2022-08-23T14:31:51.280Z,1.70
2022-08-23T14:34:17.893Z,1.98
2022-08-23T14:38:00.304Z,1.90
2022-08-23T14:39:31.197Z,2.00
2022-08-23T14:41:57.974Z,1.63
2022-08-23T14:44:29.038Z,1.80
2022-08-23T14:46:59.272Z,2.03
2022-08-23T14:49:25.773Z,1.90
2022-08-23T14:51:52.270Z,2.58
2022-08-23T14:54:24.372Z,1.80
2022-08-23T14:56:50.964Z,2.00
2022-08-23T14:59:17.496Z,1.80
2022-08-23T15:01:45.065Z,1.88
2022-08-23T15:04:11.957Z,1.77
2022-08-23T15:06:54.992Z,1.90
2022-08-23T15:09:27.186Z,2.00
2022-08-23T15:14:41.404Z,2.17
2022-08-23T15:17:07.915Z,2.10
2022-08-23T15:19:34.406Z,1.98
2022-08-23T15:22:06.538Z,2.13
2022-08-23T15:24:47.550Z,2.05
2022-08-23T15:27:14.111Z,2.00
2022-08-23T15:29:40.790Z,1.98
2022-08-23T15:32:07.806Z,1.58
2022-08-23T15:34:43.745Z,2.00
2022-08-23T15:37:13.296Z,1.90
2022-08-23T15:39:40.268Z,1.90
2022-08-23T15:42:06.816Z,1.85
2022-08-23T15:44:33.307Z,2.03
2022-08-23T15:46:59.954Z,2.10
2022-08-23T15:49:29.257Z,2.30
2022-08-23T15:51:57.435Z,1.80
2022-08-23T15:54:23.964Z,2.13
2022-08-23T15:56:51.211Z,1.75
2022-08-23T15:59:19.472Z,2.00
2022-08-23T16:01:46.085Z,1.58
2022-08-23T16:04:12.636Z,1.90
2022-08-23T16:06:40.050Z,1.90
2022-08-23T16:09:07.694Z,2.38
2022-08-23T16:11:34.200Z,1.80
2022-08-23T16:14:00.808Z,1.95
2022-08-23T16:16:30.820Z,1.88
2022-08-23T16:18:59.589Z,1.90
2022-08-23T16:21:28.883Z,1.88
2022-08-23T16:23:56.274Z,1.65
2022-08-23T16:26:34.829Z,1.70
2022-08-23T16:29:04.359Z,1.95
2022-08-23T16:31:38.410Z,1.92
2022-08-23T16:34:08.910Z,1.80
2022-08-23T16:36:35.415Z,1.80
2022-08-23T16:39:02.094Z,1.88
2022-08-23T16:41:28.583Z,1.70
2022-08-23T16:43:55.167Z,1.60
2022-08-23T16:46:22.462Z,1.92
2022-08-23T16:48:49.081Z,1.77
2022-08-23T16:51:16.198Z,1.70
2022-08-23T16:53:42.686Z,2.10
2022-08-23T16:56:11.412Z,1.88
2022-08-23T16:58:37.917Z,1.38
2022-08-23T17:01:04.829Z,2.00
2022-08-23T17:03:31.395Z,1.90
2022-08-23T17:05:57.911Z,1.90
2022-08-23T17:08:24.505Z,2.15
2022-08-23T17:10:51.007Z,1.90
2022-08-23T17:13:18.570Z,1.90
2022-08-23T17:15:45.076Z,1.63
2022-08-23T17:18:11.851Z,1.90
2022-08-23T17:20:39.334Z,1.60
2022-08-23T17:23:07.173Z,1.73
2022-08-23T17:25:34.748Z,1.70
2022-08-23T17:28:02.182Z,1.60
2022-08-23T17:30:29.022Z,1.60
2022-08-23T17:32:56.448Z,1.60
2022-08-23T17:35:28.984Z,1.77
2022-08-23T17:38:00.790Z,1.40
2022-08-23T17:40:31.276Z,1.60
2022-08-23T17:43:00.285Z,1.67
2022-08-23T17:45:27.928Z,1.60
2022-08-23T17:47:54.624Z,1.67
2022-08-23T17:50:21.928Z,1.73
2022-08-23T17:52:50.733Z,1.75
2022-08-23T17:55:18.892Z,1.92
2022-08-23T17:57:46.077Z,1.83
2022-08-23T18:00:15.670Z,1.67
2022-08-23T18:02:43.193Z,1.27
2022-08-23T18:05:10.510Z,1.45
2022-08-23T18:07:37.538Z,1.50
2022-08-23T18:10:05.417Z,2.10
2022-08-23T18:12:32.059Z,1.77
2022-08-23T18:14:58.895Z,1.48
2022-08-23T18:17:25.502Z,1.70
2022-08-23T18:19:54.423Z,1.95
2022-08-23T18:22:20.956Z,1.67
2022-08-23T18:24:47.780Z,1.63
2022-08-23T18:27:32.827Z,1.80
2022-08-23T18:29:59.376Z,1.60
2022-08-23T18:32:29.327Z,1.42
2022-08-23T18:34:55.874Z,1.40
2022-08-23T18:37:23.059Z,1.55
2022-08-23T18:39:49.684Z,1.45
2022-08-23T18:42:16.408Z,1.52
2022-08-23T18:44:43.024Z,1.50
2022-08-23T18:47:15.280Z,1.52
2022-08-23T18:49:42.277Z,1.85
2022-08-23T18:52:08.906Z,1.40
2022-08-23T18:54:36.568Z,1.30
2022-08-23T18:57:03.933Z,1.70
2022-08-23T18:59:30.770Z,1.40
2022-08-23T19:01:57.436Z,1.35
2022-08-23T19:04:24.247Z,1.38
2022-08-23T19:06:54.321Z,1.48
2022-08-23T19:09:21.278Z,1.70
2022-08-23T19:11:47.818Z,1.60
2022-08-23T19:14:14.574Z,1.58
2022-08-23T19:16:47.360Z,1.25
2022-08-23T19:19:14.934Z,1.55
2022-08-23T19:21:44.022Z,1.63
2022-08-23T19:24:10.757Z,1.50
2022-08-23T19:26:37.485Z,1.55
2022-08-23T19:29:07.371Z,1.40
2022-08-23T19:31:39.651Z,1.50
2022-08-23T19:34:08.708Z,1.30
2022-08-23T19:36:46.646Z,1.70
2022-08-23T19:39:14.559Z,1.30
2022-08-23T19:41:41.892Z,1.75
2022-08-23T19:44:08.774Z,1.58
2022-08-23T19:46:36.494Z,1.35
2022-08-23T19:49:03.079Z,1.70
2022-08-23T19:51:33.902Z,1.88
2022-08-23T19:54:11.027Z,1.27
2022-08-23T19:56:44.744Z,1.48
2022-08-23T19:59:15.144Z,1.60
2022-08-23T20:01:42.204Z,1.60
2022-08-23T20:04:08.915Z,1.90
2022-08-23T20:06:35.618Z,1.55
2022-08-23T20:09:03.408Z,1.45
2022-08-23T20:11:32.011Z,1.60
2022-08-23T20:14:00.084Z,1.75
2022-08-23T20:16:27.400Z,1.30
2022-08-23T20:18:55.182Z,1.85
2022-08-23T20:21:23.603Z,1.50
2022-08-23T20:24:01.120Z,2.05
2022-08-23T20:26:35.955Z,1.38
2022-08-23T20:29:03.836Z,1.70
2022-08-23T20:31:33.228Z,1.70
2022-08-23T20:34:00.203Z,1.50
2022-08-23T20:36:28.172Z,1.52
2022-08-23T20:38:59.920Z,1.75
2022-08-23T20:41:31.749Z,1.73
2022-08-23T20:44:00.418Z,1.67
2022-08-23T20:46:27.205Z,1.58
2022-08-23T20:48:54.247Z,1.50
2022-08-23T20:51:21.290Z,1.30
2022-08-23T20:53:47.771Z,1.27
2022-08-23T20:56:14.623Z,1.42
2022-08-23T20:58:41.098Z,1.30
2022-08-23T21:01:09.321Z,1.60
2022-08-23T21:03:37.996Z,1.42
2022-08-23T21:06:29.008Z,1.45
2022-08-23T21:08:59.260Z,1.20
2022-08-23T21:11:28.197Z,1.50
2022-08-23T21:13:55.891Z,1.38
2022-08-23T21:16:23.122Z,1.42
2022-08-23T21:18:50.312Z,1.70
2022-08-23T21:21:21.431Z,1.50
2022-08-23T21:23:49.727Z,1.30
2022-08-23T21:26:16.399Z,1.30
2022-08-23T21:28:42.905Z,1.55
2022-08-23T21:31:12.651Z,1.17
2022-08-23T21:33:40.524Z,1.42
2022-08-23T21:36:07.944Z,1.10
2022-08-23T21:38:34.567Z,1.20
2022-08-23T21:41:04.990Z,1.20
2022-08-23T21:43:32.508Z,1.42
2022-08-23T21:45:59.132Z,1.60
2022-08-23T21:48:25.700Z,1.33
2022-08-23T21:50:52.583Z,1.50
2022-08-23T21:53:19.852Z,1.75
2022-08-23T21:55:46.464Z,1.30
2022-08-23T21:58:13.421Z,1.52
2022-08-23T22:00:41.211Z,1.55
2022-08-23T22:03:08.906Z,1.58
2022-08-23T22:05:43.154Z,1.98
2022-08-23T22:08:10.301Z,1.40
2022-08-23T22:10:44.906Z,1.67
2022-08-23T22:13:23.708Z,1.38
2022-08-23T22:15:50.551Z,1.55
2022-08-23T22:18:17.086Z,1.55
2022-08-23T22:20:46.447Z,1.50
2022-08-23T22:23:12.958Z,1.65
2022-08-23T22:25:39.454Z,1.88
2022-08-23T22:28:05.950Z,1.92
2022-08-23T22:30:32.463Z,1.52
2022-08-23T22:32:59.007Z,1.35
2022-08-23T22:35:25.574Z,1.92
2022-08-23T22:38:12.233Z,1.52
2022-08-23T22:40:39.435Z,1.50
2022-08-23T22:43:05.960Z,1.75
2022-08-23T22:45:32.468Z,1.45
2022-08-23T22:47:59.023Z,1.30
2022-08-23T22:50:25.557Z,1.40
2022-08-23T22:52:52.043Z,1.50
2022-08-23T22:55:18.539Z,1.60
2022-08-23T22:57:45.039Z,1.67
2022-08-23T23:00:11.897Z,1.70
2022-08-23T23:02:38.821Z,1.67
2022-08-23T23:05:07.064Z,1.50
2022-08-23T23:07:52.029Z,1.35
2022-08-23T23:10:18.546Z,1.75
2022-08-23T23:12:45.508Z,1.70
2022-08-23T23:15:12.307Z,1.70
2022-08-23T23:17:38.817Z,1.50
2022-08-23T23:20:24.261Z,1.75
2022-08-23T23:22:51.786Z,1.48
2022-08-23T23:25:18.475Z,1.60
2022-08-23T23:27:45.128Z,1.83
2022-08-23T23:30:11.852Z,1.30
2022-08-23T23:32:38.367Z,1.70
2022-08-23T23:35:06.534Z,1.58
2022-08-23T23:37:33.022Z,1.70
2022-08-23T23:40:00.107Z,1.67
2022-08-23T23:42:26.898Z,1.50
2022-08-23T23:44:53.445Z,1.63
2022-08-23T23:47:20.018Z,1.65
2022-08-23T23:49:47.259Z,1.48
2022-08-23T23:52:13.773Z,1.40
2022-08-23T23:54:41.198Z,1.60
2022-08-23T23:57:07.943Z,1.75
2022-08-23T23:59:34.829Z,1.60
